LIMZ

Cuneo Levaldigi Airport

Airport
ICAO code
LIMZ
IATA Code
CUF
Summary
ICAO Region
EUR
ICAO Territory
Location

Levaldigi, Piedmont

Serving
Cuneo
Elevation
1267 ft
Coordinates
44° 32' 51" N , 7° 37' 24" E
KCC
Metar
Observation
LIMZ 032020Z AUTO VRB02KT 9999 FEW240/// 06/04 Q1022
Station
Cuneo / Levaldigi
Date/Time
2023-02-03 20:20:00
Wind speed
02 kts
Lowest cloud amount
few clouds
Temperature
6°C
Dew point
4°C
Humidity
86%
QNH
1022 hPa
Weather condition
n/a

Cuneo International Airport, also named Cuneo Levaldigi Airport or Turin Cuneo Airport by some low-cost airlines, is an airport serving Cuneo and Turin, Piedmont, Italy.

Climatology

Temperate mediterranean climate (Köppen climate classification Csb)

Runways

Designator Length Width Surface Rops
3/21 2104 45 ASP Yes/Yes

Airport map

Aerial View

SKYbrary Partners:

Safety knowledge contributed by: